Eastern Galaxy — DUCH — position and weather

sailwx.info

Track history (hours):
 
Tides and Currents Weather Stations Pressure Air Temp Water Temp Dewpoint Dewpoint Depression Visibility Wind Speed Wind Dir Waves Ship Positions

Eastern Galaxy

Last reported at 2014-Sep-17 02:33 UTC. Time now 2014-Sep-23 16:28 UTC.
Position N 31°59' E 132°23'.

Length 100 m; draft 5.3 m.

Type: Cargo ship. MMSI: 548829000.

Date/timePositionNaut miles runAvg speedWind from/ knotsBaromVisibWave heightAir tempDewpointWater temp
2014-Sep-17 02:33N 31°59' E 132°23'1110.8
2014-Sep-17 01:33N 32°07' E 132°31'1110.7
2014-Sep-17 00:33N 32°16' E 132°40'1110.8
2014-Sep-16 23:33N 32°24' E 132°48'1111.2
2014-Sep-16 22:33N 32°32' E 132°57'12711.5
2014-Sep-16 11:32N 33°51' E 134°56'1212.8
2014-Sep-16 10:33N 34°03' E 134°58'1313.2
2014-Sep-16 09:34N 34°17' E 134°59'1212.0
2014-Sep-16 08:34N 34°27' E 135°06'1211.9
2014-Sep-16 07:33N 34°34' E 135°18'8 8.3
2014-Sep-16 06:34N 34°39' E 135°26'0 0.1
2014-Sep-16 05:23N 34°39' E 135°26'0 0.0
2014-Sep-16 04:29N 34°39' E 135°26'0 0.0
2014-Sep-16 03:23N 34°39' E 135°26'0 0.0
2014-Sep-16 02:29N 34°39' E 135°26'0 0.0
2014-Sep-16 01:23N 34°39' E 135°26'0 0.0
2014-Sep-16 00:29N 34°39' E 135°26'0 0.0
2014-Sep-15 23:29N 34°39' E 135°26'0 0.0
2014-Sep-15 22:23N 34°39' E 135°26'0 0.0
2014-Sep-15 21:11N 34°39' E 135°26'0 0.0
2014-Sep-15 20:29N 34°39' E 135°26'0 0.0
2014-Sep-15 19:32N 34°39' E 135°26'0 0.0
2014-Sep-15 18:32N 34°39' E 135°26'0 0.0
2014-Sep-15 17:26N 34°39' E 135°26'0 0.0
2014-Sep-15 16:32N 34°39' E 135°26'0 0.0
2014-Sep-15 15:32N 34°39' E 135°26'0 0.0
2014-Sep-15 14:32N 34°39' E 135°26'0 0.0
2014-Sep-15 13:32N 34°39' E 135°26'0 0.0
2014-Sep-15 12:32N 34°39' E 135°26'0 0.0
2014-Sep-15 11:32N 34°39' E 135°26'0 0.0
2014-Sep-15 10:32N 34°39' E 135°26'0 0.0
2014-Sep-15 09:32N 34°39' E 135°26'0 0.0
2014-Sep-15 08:26N 34°39' E 135°26'0 0.0
2014-Sep-15 07:32N 34°39' E 135°26'0 0.0
2014-Sep-15 06:32N 34°39' E 135°26'0 0.0
2014-Sep-15 05:32N 34°39' E 135°26'0 0.0
2014-Sep-15 04:26N 34°39' E 135°26'0 0.0
2014-Sep-15 03:32N 34°39' E 135°26'0 0.0
2014-Sep-15 02:32N 34°39' E 135°26'0 0.0
2014-Sep-15 01:32N 34°39' E 135°26'3 3.0
2014-Sep-15 00:33N 34°38' E 135°23'2 1.8
2014-Sep-14 23:26N 34°36' E 135°21'0 0.0
2014-Sep-14 22:20N 34°36' E 135°21'0 0.0
2014-Sep-14 21:32N 34°36' E 135°21'0 0.0
2014-Sep-14 20:20N 34°36' E 135°21'0 0.0
2014-Sep-14 19:32N 34°36' E 135°21'0 0.0
2014-Sep-14 18:32N 34°36' E 135°21'0 0.0
2014-Sep-14 17:32N 34°36' E 135°21'0 0.0
2014-Sep-14 16:32N 34°36' E 135°21'0 0.0
2014-Sep-14 15:32N 34°36' E 135°21'1 0.8
2014-Sep-14 14:33N 34°36' E 135°20'7 6.6
2014-Sep-14 13:33N 34°32' E 135°14'1111.3
2014-Sep-14 12:33N 34°23' E 135°05'1010.2
2014-Sep-14 11:33N 34°14' E 134°59'1211.9
2014-Sep-14 10:33N 34°02' E 134°59'22510.6
2014-Sep-13 13:19N 34°55' E 139°24'1012.3
2014-Sep-13 12:32N 35°01' E 139°34'1110.8
2014-Sep-13 11:33N 35°07' E 139°44'10 9.8
2014-Sep-13 10:34N 35°17' E 139°45'9 8.9
2014-Sep-13 09:33N 35°26' E 139°42'2 2.3
2014-Sep-13 08:33N 35°28' E 139°40'0 0.0
2014-Sep-13 07:33N 35°28' E 139°40'0 0.0
2014-Sep-13 06:33N 35°28' E 139°40'0 0.0
2014-Sep-13 05:33N 35°28' E 139°40'0 0.0
2014-Sep-13 04:33N 35°28' E 139°40'0 0.0
2014-Sep-13 03:33N 35°28' E 139°40'0 0.0
2014-Sep-13 02:33N 35°28' E 139°40'0 0.0
2014-Sep-13 01:33N 35°28' E 139°40'0 0.0
2014-Sep-13 00:33N 35°28' E 139°40'0 0.0
2014-Sep-12 23:33N 35°28' E 139°40'0 0.0
2014-Sep-12 22:33N 35°28' E 139°40'1 1.3
2014-Sep-12 21:33N 35°27' E 139°42'1 1.1
2014-Sep-12 20:32N 35°26' E 139°42'0 0.1
2014-Sep-12 19:32N 35°26' E 139°42'0 0.0
2014-Sep-12 18:32N 35°26' E 139°42'0 0.0
2014-Sep-12 17:32N 35°26' E 139°42'0 0.1
2014-Sep-12 16:32N 35°26' E 139°42'0 0.1
2014-Sep-12 15:32N 35°26' E 139°42'0 0.0
2014-Sep-12 14:32N 35°26' E 139°42'0 0.0
2014-Sep-12 13:32N 35°26' E 139°42'0 0.0
2014-Sep-12 12:32N 35°26' E 139°42'0 0.0
2014-Sep-12 11:32N 35°26' E 139°42'0 0.5
2014-Sep-12 10:33N 35°25' E 139°42'8 8.2
2014-Sep-12 09:33N 35°17' E 139°45'1212.2
2014-Sep-12 08:32N 35°05' E 139°45'1712.4
2014-Sep-12 07:12N 34°55' E 139°28'32312.9
2014-Sep-11 06:09N 32°32' E 133°40'914.8
2014-Sep-11 05:33N 32°28' E 133°31'1814.3
2014-Sep-11 04:18N 32°21' E 133°11'1113.9
2014-Sep-11 03:33N 32°17' E 133°00'  
Track history (hours):
 
Tides and Currents Weather Stations Pressure Air Temp Water Temp Dewpoint Dewpoint Depression Visibility Wind Speed Wind Dir Waves Ship Positions

Eastern Galaxy

Last reported at 2014-Sep-17 02:33 UTC. Time now 2014-Sep-23 16:28 UTC.
Position N 31°59' E 132°23'.

Length 100 m; draft 5.3 m.

Type: Cargo ship. MMSI: 548829000.

Date/timePositionNaut miles runAvg speedWind from/ knotsBaromVisibWave heightAir tempDewpointWater temp
2014-Sep-17 02:33N 31°59' E 132°23'1110.8
2014-Sep-17 01:33N 32°07' E 132°31'1110.7
2014-Sep-17 00:33N 32°16' E 132°40'1110.8
2014-Sep-16 23:33N 32°24' E 132°48'1111.2
2014-Sep-16 22:33N 32°32' E 132°57'12711.5
2014-Sep-16 11:32N 33°51' E 134°56'1212.8
2014-Sep-16 10:33N 34°03' E 134°58'1313.2
2014-Sep-16 09:34N 34°17' E 134°59'1212.0
2014-Sep-16 08:34N 34°27' E 135°06'1211.9
2014-Sep-16 07:33N 34°34' E 135°18'8 8.3
2014-Sep-16 06:34N 34°39' E 135°26'0 0.1
2014-Sep-16 05:23N 34°39' E 135°26'0 0.0
2014-Sep-16 04:29N 34°39' E 135°26'0 0.0
2014-Sep-16 03:23N 34°39' E 135°26'0 0.0
2014-Sep-16 02:29N 34°39' E 135°26'0 0.0
2014-Sep-16 01:23N 34°39' E 135°26'0 0.0
2014-Sep-16 00:29N 34°39' E 135°26'0 0.0
2014-Sep-15 23:29N 34°39' E 135°26'0 0.0
2014-Sep-15 22:23N 34°39' E 135°26'0 0.0
2014-Sep-15 21:11N 34°39' E 135°26'0 0.0
2014-Sep-15 20:29N 34°39' E 135°26'0 0.0
2014-Sep-15 19:32N 34°39' E 135°26'0 0.0
2014-Sep-15 18:32N 34°39' E 135°26'0 0.0
2014-Sep-15 17:26N 34°39' E 135°26'0 0.0
2014-Sep-15 16:32N 34°39' E 135°26'0 0.0
2014-Sep-15 15:32N 34°39' E 135°26'0 0.0
2014-Sep-15 14:32N 34°39' E 135°26'0 0.0
2014-Sep-15 13:32N 34°39' E 135°26'0 0.0
2014-Sep-15 12:32N 34°39' E 135°26'0 0.0
2014-Sep-15 11:32N 34°39' E 135°26'0 0.0
2014-Sep-15 10:32N 34°39' E 135°26'0 0.0
2014-Sep-15 09:32N 34°39' E 135°26'0 0.0
2014-Sep-15 08:26N 34°39' E 135°26'0 0.0
2014-Sep-15 07:32N 34°39' E 135°26'0 0.0
2014-Sep-15 06:32N 34°39' E 135°26'0 0.0
2014-Sep-15 05:32N 34°39' E 135°26'0 0.0
2014-Sep-15 04:26N 34°39' E 135°26'0 0.0
2014-Sep-15 03:32N 34°39' E 135°26'0 0.0
2014-Sep-15 02:32N 34°39' E 135°26'0 0.0
2014-Sep-15 01:32N 34°39' E 135°26'3 3.0
2014-Sep-15 00:33N 34°38' E 135°23'2 1.8
2014-Sep-14 23:26N 34°36' E 135°21'0 0.0
2014-Sep-14 22:20N 34°36' E 135°21'0 0.0
2014-Sep-14 21:32N 34°36' E 135°21'0 0.0
2014-Sep-14 20:20N 34°36' E 135°21'0 0.0
2014-Sep-14 19:32N 34°36' E 135°21'0 0.0
2014-Sep-14 18:32N 34°36' E 135°21'0 0.0
2014-Sep-14 17:32N 34°36' E 135°21'0 0.0
2014-Sep-14 16:32N 34°36' E 135°21'0 0.0
2014-Sep-14 15:32N 34°36' E 135°21'1 0.8
2014-Sep-14 14:33N 34°36' E 135°20'7 6.6
2014-Sep-14 13:33N 34°32' E 135°14'1111.3
2014-Sep-14 12:33N 34°23' E 135°05'1010.2
2014-Sep-14 11:33N 34°14' E 134°59'1211.9
2014-Sep-14 10:33N 34°02' E 134°59'22510.6
2014-Sep-13 13:19N 34°55' E 139°24'1012.3
2014-Sep-13 12:32N 35°01' E 139°34'1110.8
2014-Sep-13 11:33N 35°07' E 139°44'10 9.8
2014-Sep-13 10:34N 35°17' E 139°45'9 8.9
2014-Sep-13 09:33N 35°26' E 139°42'2 2.3
2014-Sep-13 08:33N 35°28' E 139°40'0 0.0
2014-Sep-13 07:33N 35°28' E 139°40'0 0.0
2014-Sep-13 06:33N 35°28' E 139°40'0 0.0
2014-Sep-13 05:33N 35°28' E 139°40'0 0.0
2014-Sep-13 04:33N 35°28' E 139°40'0 0.0
2014-Sep-13 03:33N 35°28' E 139°40'0 0.0
2014-Sep-13 02:33N 35°28' E 139°40'0 0.0
2014-Sep-13 01:33N 35°28' E 139°40'0 0.0
2014-Sep-13 00:33N 35°28' E 139°40'0 0.0
2014-Sep-12 23:33N 35°28' E 139°40'0 0.0
2014-Sep-12 22:33N 35°28' E 139°40'1 1.3
2014-Sep-12 21:33N 35°27' E 139°42'1 1.1
2014-Sep-12 20:32N 35°26' E 139°42'0 0.1
2014-Sep-12 19:32N 35°26' E 139°42'0 0.0
2014-Sep-12 18:32N 35°26' E 139°42'0 0.0
2014-Sep-12 17:32N 35°26' E 139°42'0 0.1
2014-Sep-12 16:32N 35°26' E 139°42'0 0.1
2014-Sep-12 15:32N 35°26' E 139°42'0 0.0
2014-Sep-12 14:32N 35°26' E 139°42'0 0.0
2014-Sep-12 13:32N 35°26' E 139°42'0 0.0
2014-Sep-12 12:32N 35°26' E 139°42'0 0.0
2014-Sep-12 11:32N 35°26' E 139°42'0 0.5
2014-Sep-12 10:33N 35°25' E 139°42'8 8.2
2014-Sep-12 09:33N 35°17' E 139°45'1212.2
2014-Sep-12 08:32N 35°05' E 139°45'1712.4
2014-Sep-12 07:12N 34°55' E 139°28'32312.9
2014-Sep-11 06:09N 32°32' E 133°40'914.8
2014-Sep-11 05:33N 32°28' E 133°31'1814.3
2014-Sep-11 04:18N 32°21' E 133°11'1113.9
2014-Sep-11 03:33N 32°17' E 133°00'  

Dump ship's entire track history